Time;durP1;ratioP1;P1;durP2;ratioP2;P2;SDS_P1;SDS_P2;PMS_P1;PMS_P2;Temp;Humidity;BMP_temperature;BMP_pressure;BME280_temperature;BME280_humidity;BME280_pressure;Samples;Min_cycle;Max_cycle;Signal;HPM_P1;HPM_P2
2022/09/28 00:01:43;;;;;;;9.82;5.15;;;7.80;99.90;;;;;;5081156;28;20110;-58
2022/09/28 00:04:09;;;;;;;8.48;4.75;;;7.80;99.90;;;;;;5079979;28;20047;-58
2022/09/28 00:06:34;;;;;;;9.15;5.20;;;7.90;99.90;;;;;;5081101;28;20040;-58
2022/09/28 00:09:00;;;;;;;12.00;5.47;;;7.90;99.90;;;;;;5080182;28;20047;-58
2022/09/28 00:11:27;;;;;;;9.68;5.25;;;8.00;99.90;;;;;;5080731;28;20107;-58
2022/09/28 00:13:55;;;;;;;9.80;5.18;;;8.00;99.90;;;;;;5080209;28;20048;-58
2022/09/28 00:16:25;;;;;;;9.80;5.55;;;7.90;99.90;;;;;;5080080;28;20097;-58
2022/09/28 00:18:51;;;;;;;9.77;5.55;;;8.10;99.90;;;;;;5080608;28;20043;-57
2022/09/28 00:21:22;;;;;;;8.85;5.25;;;8.00;99.90;;;;;;5079694;28;20052;-58
2022/09/28 00:26:36;;;;;;;8.95;5.22;;;8.10;99.90;;;;;;5079694;28;20544;-57
2022/09/28 00:29:02;;;;;;;13.00;6.32;;;8.10;99.90;;;;;;5080416;28;20083;-58
2022/09/28 00:31:32;;;;;;;8.90;5.60;;;8.10;99.90;;;;;;5080277;28;20044;-58
2022/09/28 00:33:59;;;;;;;9.60;5.60;;;8.10;99.90;;;;;;5079304;28;20113;-58
2022/09/28 00:36:27;;;;;;;10.05;5.55;;;7.90;99.90;;;;;;5080510;28;20461;-58
2022/09/28 00:38:55;;;;;;;11.80;5.82;;;7.90;99.90;;;;;;5064316;28;20108;-58
2022/09/28 00:41:21;;;;;;;10.38;6.10;;;8.10;99.90;;;;;;5076147;28;20040;-58
2022/09/28 00:43:46;;;;;;;11.40;6.25;;;8.10;99.90;;;;;;5079617;28;20095;-58
2022/09/28 00:46:32;;;;;;;10.07;6.07;;;7.90;99.90;;;;;;5079639;28;20048;-58
2022/09/28 00:49:10;;;;;;;11.32;6.72;;;7.90;99.90;;;;;;5080399;28;20051;-58
2022/09/28 00:51:39;;;;;;;13.05;7.13;;;8.10;99.90;;;;;;5079372;28;20044;-58
2022/09/28 00:54:07;;;;;;;15.70;7.70;;;8.10;99.90;;;;;;5080069;28;20047;-58
2022/09/28 00:56:37;;;;;;;12.57;8.02;;;8.00;99.90;;;;;;5077808;28;20040;-58
2022/09/28 00:59:03;;;;;;;14.27;8.45;;;8.00;99.90;;;;;;5079633;28;20059;-58
2022/09/28 01:01:30;;;;;;;13.30;9.02;;;8.20;99.90;;;;;;5079770;28;20064;-57
2022/09/28 01:04:01;;;;;;;13.48;8.23;;;8.00;99.90;;;;;;5079043;28;20051;-58
2022/09/28 01:06:32;;;;;;;14.15;8.90;;;8.20;99.90;;;;;;5079882;28;20120;-58
2022/09/28 01:09:01;;;;;;;13.98;8.52;;;8.10;99.90;;;;;;5078637;28;20032;-58
2022/09/28 01:11:30;;;;;;;13.73;8.30;;;8.30;99.90;;;;;;5079856;28;20504;-58
2022/09/28 01:13:57;;;;;;;13.32;8.25;;;8.20;99.90;;;;;;5079355;28;20058;-58
2022/09/28 01:16:39;;;;;;;12.50;7.88;;;8.10;99.90;;;;;;5079146;28;20063;-58
2022/09/28 01:19:16;;;;;;;12.23;7.72;;;8.00;99.90;;;;;;5079771;28;20059;-58
2022/09/28 01:22:10;;;;;;;11.90;7.25;;;8.10;99.90;;;;;;5078847;28;20048;-58
2022/09/28 01:24:39;;;;;;;15.10;7.15;;;8.00;99.90;;;;;;5079578;28;20048;-58
2022/09/28 01:27:33;;;;;;;11.30;7.15;;;8.10;99.90;;;;;;5079062;28;20075;-57
2022/09/28 01:30:06;;;;;;;12.07;8.10;;;8.20;99.90;;;;;;5078471;28;20115;-58
2022/09/28 01:32:54;;;;;;;10.82;7.40;;;8.00;99.90;;;;;;5078149;28;20075;-57
2022/09/28 01:35:30;;;;;;;13.15;7.80;;;8.10;99.90;;;;;;5078907;28;20040;-57
2022/09/28 01:38:05;;;;;;;12.63;8.32;;;8.10;99.90;;;;;;5072739;28;20047;-57
2022/09/28 01:40:32;;;;;;;13.98;7.90;;;8.20;99.90;;;;;;5068290;28;20036;-57
2022/09/28 01:43:16;;;;;;;15.27;7.68;;;8.10;99.90;;;;;;5078525;28;20065;-58
2022/09/28 01:45:46;;;;;;;12.43;8.18;;;8.10;99.90;;;;;;5079622;28;20044;-57
2022/09/28 01:48:27;;;;;;;14.45;8.23;;;8.20;99.90;;;;;;5078896;28;20041;-57
2022/09/28 01:50:57;;;;;;;13.98;7.97;;;8.20;99.90;;;;;;5078559;28;20102;-57
2022/09/28 01:53:37;;;;;;;13.50;8.40;;;8.00;99.90;;;;;;5079238;28;20080;-58
2022/09/28 01:56:14;;;;;;;16.20;9.68;;;8.10;99.90;;;;;;5078551;28;20079;-58
2022/09/28 01:58:53;;;;;;;13.75;8.75;;;8.20;99.90;;;;;;5079097;28;20049;-58
2022/09/28 02:01:35;;;;;;;15.30;8.13;;;8.10;99.90;;;;;;5078838;28;20045;-57
2022/09/28 02:04:13;;;;;;;16.08;8.93;;;8.00;99.90;;;;;;5078204;28;20048;-57
2022/09/28 02:07:17;;;;;;;15.13;8.35;;;8.10;99.90;;;;;;5079233;28;20040;-58
2022/09/28 02:09:50;;;;;;;14.60;8.40;;;8.00;99.90;;;;;;5078440;28;20036;-57
2022/09/28 02:12:26;;;;;;;14.35;8.20;;;8.20;99.90;;;;;;5078293;28;20056;-57
2022/09/28 02:14:57;;;;;;;14.85;9.07;;;8.10;99.90;;;;;;5079123;28;20072;-57
2022/09/28 02:17:23;;;;;;;13.90;8.25;;;8.10;99.90;;;;;;5078395;28;20036;-57
2022/09/28 02:19:49;;;;;;;18.95;10.27;;;8.10;99.90;;;;;;5079058;28;20119;-58
2022/09/28 02:22:32;;;;;;;14.82;8.30;;;8.30;99.90;;;;;;5077058;28;20116;-57
2022/09/28 02:25:06;;;;;;;13.77;8.98;;;8.20;99.90;;;;;;5078634;28;20045;-58
2022/09/28 02:27:51;;;;;;;16.85;9.93;;;8.20;99.90;;;;;;5079175;28;20055;-57
2022/09/28 02:30:17;;;;;;;16.00;10.75;;;8.10;99.90;;;;;;5077933;28;20040;-58
2022/09/28 02:32:47;;;;;;;13.25;8.90;;;8.20;99.90;;;;;;5078918;28;20126;-57
2022/09/28 02:35:16;;;;;;;15.93;9.38;;;8.00;99.90;;;;;;5078215;28;20036;-57
2022/09/28 02:37:43;;;;;;;14.18;9.10;;;8.10;99.90;;;;;;5074922;28;20037;-58
2022/09/28 02:40:17;;;;;;;14.18;9.00;;;8.10;99.90;;;;;;5068407;28;20452;-57
2022/09/28 02:43:03;;;;;;;14.98;9.52;;;8.00;99.90;;;;;;5081591;28;20065;-57
2022/09/28 02:46:10;;;;;;;15.13;9.38;;;8.00;99.90;;;;;;5082418;28;20492;-58
2022/09/28 02:48:45;;;;;;;14.45;8.73;;;7.90;99.90;;;;;;5082310;28;20083;-57
2022/09/28 02:51:17;;;;;;;14.82;9.38;;;7.90;99.90;;;;;;5081396;28;20044;-57
2022/09/28 02:53:56;;;;;;;12.75;8.88;;;8.00;99.90;;;;;;5082540;28;20032;-58
2022/09/28 02:56:37;;;;;;;15.48;8.63;;;7.90;99.90;;;;;;5081622;28;20044;-58
2022/09/28 02:59:08;;;;;;;15.50;9.00;;;7.80;99.90;;;;;;5081971;28;20075;-59
2022/09/28 03:01:38;;;;;;;11.60;8.15;;;7.80;99.90;;;;;;5081995;28;20057;-58
2022/09/28 03:04:24;;;;;;;12.93;8.43;;;8.00;99.90;;;;;;5081342;28;20532;-58
2022/09/28 03:07:14;;;;;;;15.68;8.88;;;7.90;99.90;;;;;;5082230;28;20033;-57
2022/09/28 03:09:58;;;;;;;14.70;9.32;;;8.00;99.90;;;;;;5080786;28;20056;-56
2022/09/28 03:12:28;;;;;;;14.75;9.43;;;7.90;99.90;;;;;;5079783;28;20047;-57
2022/09/28 03:15:24;;;;;;;14.93;8.95;;;7.90;99.90;;;;;;5082055;28;20060;-57
2022/09/28 03:17:50;;;;;;;14.70;9.32;;;7.90;99.90;;;;;;5081345;28;20052;-57
2022/09/28 03:20:16;;;;;;;15.38;9.57;;;8.00;99.90;;;;;;5081188;28;20048;-57
2022/09/28 03:22:41;;;;;;;16.02;8.88;;;7.90;99.90;;;;;;5081359;28;20048;-57
2022/09/28 03:25:08;;;;;;;15.30;10.10;;;7.90;99.90;;;;;;5080921;28;20037;-57
2022/09/28 03:27:34;;;;;;;16.05;9.57;;;7.90;99.90;;;;;;5081811;28;20056;-58
2022/09/28 03:29:59;;;;;;;15.45;10.52;;;7.80;99.90;;;;;;5080728;28;20059;-58
2022/09/28 03:32:25;;;;;;;14.60;10.02;;;7.80;99.90;;;;;;5081821;28;20072;-57
2022/09/28 03:34:51;;;;;;;20.42;10.60;;;7.80;99.90;;;;;;5080733;28;20047;-57
2022/09/28 03:37:16;;;;;;;14.88;9.60;;;7.80;99.90;;;;;;5080148;28;20041;-58
2022/09/28 03:39:42;;;;;;;14.32;9.40;;;7.80;99.90;;;;;;5080957;28;20044;-57
2022/09/28 03:42:08;;;;;;;17.33;9.68;;;7.70;99.90;;;;;;5080824;28;20040;-57
2022/09/28 03:44:33;;;;;;;15.02;9.00;;;7.90;99.90;;;;;;5080094;28;20048;-57
2022/09/28 03:46:59;;;;;;;17.05;10.02;;;7.80;99.90;;;;;;5080303;28;20303;-58
2022/09/28 03:49:24;;;;;;;15.82;9.40;;;7.70;99.90;;;;;;5079792;28;20055;-57
2022/09/28 03:51:50;;;;;;;15.30;8.88;;;7.80;99.90;;;;;;5080560;28;20047;-58
2022/09/28 03:54:16;;;;;;;16.63;9.70;;;7.90;99.90;;;;;;5081246;28;20485;-58
2022/09/28 03:56:41;;;;;;;17.20;10.35;;;8.00;99.90;;;;;;5080823;28;20091;-58
2022/09/28 03:59:07;;;;;;;15.40;10.40;;;7.90;99.90;;;;;;5080504;28;20079;-58
2022/09/28 04:01:33;;;;;;;14.93;9.60;;;7.80;99.90;;;;;;5081084;28;20071;-57
2022/09/28 04:03:58;;;;;;;15.80;10.35;;;7.90;99.90;;;;;;5080083;28;20113;-58
2022/09/28 04:06:24;;;;;;;14.52;9.68;;;7.80;99.90;;;;;;5080994;28;20114;-58
2022/09/28 04:08:50;;;;;;;15.00;9.90;;;7.90;99.90;;;;;;5080360;28;20036;-58
2022/09/28 04:11:16;;;;;;;15.13;8.82;;;7.90;99.90;;;;;;5080877;28;20870;-58
2022/09/28 04:13:42;;;;;;;20.05;9.32;;;7.80;99.90;;;;;;5080226;28;20112;-58
2022/09/28 04:16:09;;;;;;;19.40;9.35;;;7.70;99.90;;;;;;5080662;28;20368;-58
2022/09/28 04:18:35;;;;;;;17.23;9.25;;;7.60;99.90;;;;;;5080519;28;20160;-57
2022/09/28 04:21:02;;;;;;;18.02;9.75;;;7.60;99.90;;;;;;5079707;28;20220;-59
2022/09/28 04:23:28;;;;;;;17.13;9.90;;;7.70;99.90;;;;;;5080864;28;20041;-59
2022/09/28 04:25:54;;;;;;;14.57;9.73;;;7.60;99.90;;;;;;5079779;28;20571;-59
2022/09/28 04:31:15;;;;;;;16.80;10.20;;;7.70;99.90;;;;;;5080004;28;20087;-58
2022/09/28 04:33:40;;;;;;;15.05;9.68;;;7.90;99.90;;;;;;5079820;28;20071;-58
2022/09/28 04:36:08;;;;;;;17.55;9.40;;;7.80;99.90;;;;;;5080467;28;20036;-58
2022/09/28 04:38:34;;;;;;;14.90;9.20;;;7.80;99.90;;;;;;5068128;28;20056;-58
2022/09/28 04:41:00;;;;;;;16.98;9.43;;;7.70;99.90;;;;;;5072998;28;20058;-57
2022/09/28 04:43:25;;;;;;;14.05;9.35;;;7.70;99.90;;;;;;5079318;28;20046;-58
2022/09/28 04:45:51;;;;;;;13.77;8.82;;;7.80;99.90;;;;;;5080335;28;20040;-58
2022/09/28 04:48:17;;;;;;;15.50;9.20;;;7.60;99.90;;;;;;5078449;28;20038;-57
2022/09/28 04:50:42;;;;;;;15.00;9.27;;;7.60;99.90;;;;;;5079513;28;20040;-57
2022/09/28 04:53:08;;;;;;;13.70;9.45;;;7.70;99.90;;;;;;5079976;28;20115;-57
2022/09/28 04:55:34;;;;;;;15.07;9.82;;;7.80;99.90;;;;;;5079203;28;20049;-57
2022/09/28 04:58:01;;;;;;;15.95;9.02;;;7.70;99.90;;;;;;5078076;28;20049;-57
2022/09/28 05:00:34;;;;;;;16.13;9.52;;;7.70;99.90;;;;;;5075007;28;20112;-57
2022/09/28 05:03:00;;;;;;;15.38;9.43;;;7.60;99.90;;;;;;5076085;28;20048;-57
2022/09/28 05:05:25;;;;;;;15.35;9.73;;;7.60;99.90;;;;;;5074366;28;20112;-57
2022/09/28 05:07:51;;;;;;;14.18;9.63;;;7.50;99.90;;;;;;5075556;28;20098;-57
2022/09/28 05:10:18;;;;;;;12.07;8.35;;;7.60;99.90;;;;;;5075364;28;20543;-58
2022/09/28 05:12:44;;;;;;;13.90;9.18;;;7.50;99.90;;;;;;5075054;28;20604;-58
2022/09/28 05:15:10;;;;;;;12.93;8.68;;;7.50;99.90;;;;;;5075901;28;20068;-58
2022/09/28 05:17:36;;;;;;;16.08;9.45;;;7.50;99.90;;;;;;5075211;28;20102;-57
2022/09/28 05:20:02;;;;;;;14.13;9.13;;;7.50;99.90;;;;;;5075869;28;20048;-58
2022/09/28 05:22:28;;;;;;;16.02;9.32;;;7.50;99.90;;;;;;5075211;28;20100;-57
2022/09/28 05:24:53;;;;;;;15.63;9.77;;;7.50;99.90;;;;;;5075598;28;20071;-58
2022/09/28 05:27:20;;;;;;;17.05;10.07;;;7.40;99.90;;;;;;5075355;28;20036;-55
2022/09/28 05:29:46;;;;;;;15.27;9.43;;;7.40;99.90;;;;;;5074692;28;20056;-58
2022/09/28 05:32:11;;;;;;;13.95;9.02;;;7.50;99.90;;;;;;5075494;28;20052;-55
2022/09/28 05:34:37;;;;;;;14.52;9.07;;;7.50;99.90;;;;;;5067299;28;20048;-58
2022/09/28 05:37:02;;;;;;;18.70;9.63;;;7.40;99.90;;;;;;5050779;28;20055;-58
2022/09/28 05:39:28;;;;;;;16.58;10.10;;;7.20;99.90;;;;;;5054801;28;20108;-58
2022/09/28 05:41:56;;;;;;;17.60;9.75;;;7.30;99.90;;;;;;5057517;28;20048;-58
2022/09/28 05:44:22;;;;;;;25.65;10.38;;;7.40;99.90;;;;;;5058350;28;20135;-57
2022/09/28 05:46:48;;;;;;;22.38;10.02;;;7.40;99.90;;;;;;5056434;28;20527;-57
2022/09/28 05:49:13;;;;;;;27.83;11.10;;;7.30;99.90;;;;;;5059794;28;20468;-58
2022/09/28 05:51:39;;;;;;;32.22;10.02;;;7.30;99.90;;;;;;5057383;28;20084;-57
2022/09/28 05:54:05;;;;;;;43.38;11.35;;;7.20;99.90;;;;;;5058638;28;20461;-58
2022/09/28 05:56:30;;;;;;;26.48;10.30;;;7.30;99.90;;;;;;5055974;28;20037;-58
2022/09/28 05:58:57;;;;;;;57.78;11.35;;;7.40;99.90;;;;;;5035848;28;20061;-57
2022/09/28 06:01:23;;;;;;;32.55;11.05;;;7.20;99.90;;;;;;5055573;28;20392;-57
2022/09/28 06:03:49;;;;;;;31.73;10.85;;;7.40;99.90;;;;;;5054515;28;20045;-57
2022/09/28 06:06:14;;;;;;;42.35;11.30;;;7.40;99.90;;;;;;5055292;28;20550;-57
2022/09/28 06:08:45;;;;;;;34.67;10.68;;;7.30;99.90;;;;;;5054685;28;20072;-58
2022/09/28 06:11:11;;;;;;;35.35;12.68;;;7.30;99.90;;;;;;5054608;28;20041;-57
2022/09/28 06:13:38;;;;;;;23.35;9.95;;;7.30;99.90;;;;;;5057084;28;20041;-57
2022/09/28 06:16:06;;;;;;;20.92;10.02;;;7.30;99.90;;;;;;5058988;28;20239;-57
2022/09/28 06:18:32;;;;;;;20.00;9.98;;;7.40;99.90;;;;;;5059207;28;20147;-57
2022/09/28 06:20:58;;;;;;;16.52;9.27;;;7.50;99.90;;;;;;5058170;28;20076;-58
2022/09/28 06:23:23;;;;;;;16.05;9.10;;;7.50;99.90;;;;;;5057277;28;20060;-57
2022/09/28 06:25:52;;;;;;;35.38;10.20;;;7.50;99.90;;;;;;5058244;28;20084;-57
2022/09/28 06:28:18;;;;;;;14.02;8.43;;;7.50;99.90;;;;;;5041241;28;20052;-58
2022/09/28 06:30:43;;;;;;;19.33;8.63;;;7.50;99.90;;;;;;5058299;28;20045;-58
2022/09/28 06:33:11;;;;;;;17.33;7.82;;;7.50;99.90;;;;;;5057519;28;20461;-57
2022/09/28 06:35:38;;;;;;;14.85;7.68;;;7.50;99.90;;;;;;5058269;28;20512;-57
2022/09/28 06:38:04;;;;;;;24.85;7.97;;;7.50;99.90;;;;;;5064754;28;20173;-58
2022/09/28 06:40:30;;;;;;;15.25;7.63;;;7.50;99.90;;;;;;5077314;28;20495;-57
2022/09/28 06:43:01;;;;;;;11.93;6.95;;;7.60;99.90;;;;;;5077973;28;20588;-57
2022/09/28 06:45:28;;;;;;;14.38;7.88;;;7.60;99.90;;;;;;5078634;28;20071;-57
2022/09/28 06:47:55;;;;;;;14.82;7.25;;;7.60;99.90;;;;;;5077688;28;20049;-57
2022/09/28 06:50:23;;;;;;;14.15;7.88;;;7.60;99.90;;;;;;5078116;28;20069;-58
2022/09/28 06:52:50;;;;;;;12.88;7.82;;;7.70;99.90;;;;;;5078549;28;20086;-57
2022/09/28 06:55:16;;;;;;;12.98;8.27;;;7.70;99.90;;;;;;5076221;28;20617;-57
2022/09/28 06:57:41;;;;;;;12.80;8.10;;;7.90;99.90;;;;;;5078274;28;20049;-57
2022/09/28 07:00:08;;;;;;;12.13;8.65;;;7.90;99.90;;;;;;5077171;28;20670;-58
2022/09/28 07:02:33;;;;;;;12.35;9.20;;;7.90;99.90;;;;;;5078451;28;20052;-58
2022/09/28 07:04:59;;;;;;;12.10;8.52;;;8.10;99.90;;;;;;5076550;28;20080;-58
2022/09/28 07:07:25;;;;;;;13.85;9.45;;;8.20;99.90;;;;;;5078011;28;20036;-57
2022/09/28 07:09:54;;;;;;;13.50;9.43;;;8.30;99.90;;;;;;5075989;28;20059;-57
2022/09/28 07:12:23;;;;;;;12.15;8.52;;;8.20;99.90;;;;;;5059323;28;20048;-58
2022/09/28 07:14:49;;;;;;;14.35;9.10;;;8.30;99.90;;;;;;5078100;28;20067;-57
2022/09/28 07:17:15;;;;;;;12.52;8.20;;;8.30;99.90;;;;;;5077506;28;20516;-58
2022/09/28 07:19:41;;;;;;;14.65;8.75;;;8.30;99.90;;;;;;5078014;28;20072;-58
2022/09/28 07:22:06;;;;;;;14.00;8.63;;;8.50;99.90;;;;;;5076925;28;20063;-56
2022/09/28 07:24:32;;;;;;;13.32;8.63;;;8.50;99.90;;;;;;5077267;28;20115;-58
2022/09/28 07:26:58;;;;;;;12.35;7.82;;;8.50;99.90;;;;;;5077751;28;20040;-57
2022/09/28 07:29:24;;;;;;;16.05;8.00;;;8.60;99.90;;;;;;5077259;28;20398;-58
2022/09/28 07:31:52;;;;;;;13.48;9.27;;;8.70;99.90;;;;;;5076099;28;20048;-58
2022/09/28 07:34:21;;;;;;;12.82;8.25;;;8.80;99.90;;;;;;5076048;28;20058;-58
2022/09/28 07:36:47;;;;;;;12.48;8.65;;;8.90;99.90;;;;;;5077363;28;20051;-58
2022/09/28 07:39:13;;;;;;;12.93;8.10;;;8.90;99.90;;;;;;5076632;28;20155;-57
2022/09/28 07:41:40;;;;;;;13.43;7.85;;;9.10;99.90;;;;;;5077684;28;20036;-58
2022/09/28 07:44:06;;;;;;;12.48;8.52;;;9.20;99.90;;;;;;5077144;28;20116;-58
2022/09/28 07:46:35;;;;;;;11.35;7.88;;;9.30;99.90;;;;;;5075029;28;20052;-58
2022/09/28 07:49:04;;;;;;;15.60;8.52;;;9.30;99.90;;;;;;5077111;28;20084;-58
2022/09/28 07:51:30;;;;;;;13.88;8.27;;;9.40;99.90;;;;;;5076898;28;20093;-58
2022/09/28 07:53:56;;;;;;;12.32;7.90;;;9.40;99.90;;;;;;5077128;28;20098;-58
2022/09/28 07:56:22;;;;;;;12.20;7.85;;;9.50;99.90;;;;;;5078574;28;20037;-58
2022/09/28 07:58:50;;;;;;;14.50;8.63;;;9.60;99.90;;;;;;5080562;28;20071;-59
2022/09/28 08:01:17;;;;;;;11.60;8.07;;;9.60;99.90;;;;;;5078892;28;20117;-58
2022/09/28 08:03:44;;;;;;;10.75;7.25;;;9.80;99.90;;;;;;5078362;28;20429;-58
2022/09/28 08:06:11;;;;;;;11.30;7.20;;;9.80;99.90;;;;;;5080232;28;20044;-58
2022/09/28 08:08:43;;;;;;;9.77;6.18;;;9.80;99.90;;;;;;5062109;28;20123;-58
2022/09/28 08:11:15;;;;;;;11.07;5.20;;;10.00;99.90;;;;;;5077240;28;20040;-58
2022/09/28 08:13:42;;;;;;;11.02;5.93;;;10.00;99.90;;;;;;5079842;28;20049;-58
2022/09/28 08:16:08;;;;;;;9.98;5.35;;;9.90;99.90;;;;;;5079585;28;20044;-58
2022/09/28 08:18:35;;;;;;;9.07;5.22;;;10.00;99.90;;;;;;5080194;28;20158;-58
2022/09/28 08:23:47;;;;;;;10.23;5.20;;;10.20;99.90;;;;;;5080078;28;20044;-58
2022/09/28 08:26:13;;;;;;;10.85;6.47;;;10.30;99.90;;;;;;5077925;28;20041;-58
2022/09/28 08:28:39;;;;;;;13.25;6.45;;;10.20;99.90;;;;;;5079751;28;20154;-58
2022/09/28 08:31:06;;;;;;;9.82;6.15;;;10.30;99.90;;;;;;5079302;28;20070;-58
2022/09/28 08:33:32;;;;;;;10.15;6.03;;;10.40;99.90;;;;;;5079275;28;20055;-58
2022/09/28 08:36:00;;;;;;;8.80;5.53;;;10.50;99.90;;;;;;5079057;28;20043;-59
2022/09/28 08:38:28;;;;;;;8.45;5.72;;;10.40;99.90;;;;;;5075049;28;20040;-58
2022/09/28 08:41:19;;;;;;;8.40;5.20;;;10.50;99.90;;;;;;5079037;28;20040;-58
2022/09/28 08:43:45;;;;;;;9.55;5.20;;;10.60;99.90;;;;;;5078922;28;20107;-58
2022/09/28 08:46:13;;;;;;;9.80;5.32;;;10.70;99.90;;;;;;5079286;28;20777;-59
2022/09/28 08:48:53;;;;;;;9.38;5.65;;;10.80;99.90;;;;;;5079748;28;20048;-58
2022/09/28 08:51:28;;;;;;;9.75;5.25;;;10.90;99.90;;;;;;5077520;28;20507;-58
2022/09/28 08:54:04;;;;;;;13.80;4.75;;;10.80;99.90;;;;;;5076373;28;20605;-59
2022/09/28 08:56:46;;;;;;;11.02;5.07;;;11.00;99.90;;;;;;5076760;28;20107;-57
2022/09/28 08:59:43;;;;;;;8.48;5.18;;;11.00;99.90;;;;;;5076616;28;20052;-59
2022/09/28 09:02:19;;;;;;;7.97;3.78;;;11.00;99.90;;;;;;5066311;28;20064;-58
2022/09/28 09:04:45;;;;;;;7.60;3.42;;;11.10;99.90;;;;;;5061506;28;20057;-58
2022/09/28 09:07:23;;;;;;;6.35;2.67;;;11.10;99.90;;;;;;5064860;28;20044;-58
2022/09/28 09:10:07;;;;;;;6.80;3.13;;;11.20;99.90;;;;;;5065649;28;20051;-59
2022/09/28 09:12:47;;;;;;;8.15;3.45;;;11.30;99.90;;;;;;5069952;28;20041;-59
2022/09/28 09:15:17;;;;;;;7.00;2.75;;;11.30;99.90;;;;;;5068460;28;20080;-59
2022/09/28 09:17:56;;;;;;;8.35;2.65;;;11.40;99.90;;;;;;5068046;28;20036;-59
2022/09/28 09:20:48;;;;;;;9.10;3.00;;;11.30;99.90;;;;;;5066343;28;20052;-59
2022/09/28 09:23:19;;;;;;;6.65;2.38;;;11.40;99.90;;;;;;5068737;28;20055;-59
2022/09/28 09:25:54;;;;;;;8.63;2.20;;;11.50;99.90;;;;;;5057994;28;20059;-59
2022/09/28 09:28:34;;;;;;;7.88;2.60;;;11.50;99.90;;;;;;5059557;28;20033;-59
2022/09/28 09:31:37;;;;;;;8.93;2.22;;;11.60;99.90;;;;;;5057156;28;20087;-58
2022/09/28 09:34:18;;;;;;;5.68;1.80;;;11.60;99.90;;;;;;5058390;28;20554;-58
2022/09/28 09:37:08;;;;;;;4.07;1.70;;;11.60;99.90;;;;;;5059329;28;20061;-59
2022/09/28 09:40:05;;;;;;;6.45;2.03;;;11.50;99.90;;;;;;5076872;28;20052;-59
2022/09/28 09:42:49;;;;;;;2.60;1.00;;;11.60;99.90;;;;;;5078280;28;20780;-58
2022/09/28 09:45:37;;;;;;;3.45;0.95;;;11.60;99.90;;;;;;5078766;28;20078;-58
2022/09/28 09:48:09;;;;;;;3.22;1.25;;;11.70;99.90;;;;;;5078327;28;20062;-59
2022/09/28 09:50:43;;;;;;;5.40;1.40;;;11.80;99.90;;;;;;5078526;28;20475;-58
2022/09/28 09:53:32;;;;;;;5.50;1.20;;;11.80;99.90;;;;;;5077809;28;20060;-59
2022/09/28 09:56:07;;;;;;;3.20;1.00;;;11.90;99.90;;;;;;5078038;28;20104;-59
2022/09/28 09:58:37;;;;;;;4.55;1.15;;;11.90;99.90;;;;;;5077138;28;20048;-59
2022/09/28 10:01:10;;;;;;;3.75;1.25;;;12.10;99.90;;;;;;5077828;28;20099;-58
2022/09/28 10:03:41;;;;;;;3.42;1.13;;;12.20;99.90;;;;;;5077877;28;20044;-59
2022/09/28 10:06:15;;;;;;;4.90;1.55;;;12.10;99.90;;;;;;5078803;28;20037;-59
2022/09/28 10:08:46;;;;;;;2.70;1.10;;;12.20;99.90;;;;;;5077838;28;20068;-58
2022/09/28 10:11:40;;;;;;;5.63;1.20;;;12.20;99.90;;;;;;5078723;28;20104;-59
2022/09/28 10:14:15;;;;;;;4.63;1.67;;;12.20;99.90;;;;;;5070466;28;20609;-58
2022/09/28 10:16:43;;;;;;;5.40;1.23;;;12.30;99.90;;;;;;5077339;28;20076;-59
2022/09/28 10:19:12;;;;;;;3.90;1.15;;;12.30;99.90;;;;;;5078381;28;20128;-58
2022/09/28 10:21:39;;;;;;;5.38;1.17;;;12.30;99.90;;;;;;5077256;28;20076;-58
2022/09/28 10:24:24;;;;;;;3.75;1.33;;;12.30;99.90;;;;;;5077774;28;20242;-59
2022/09/28 10:26:53;;;;;;;3.75;0.98;;;12.50;99.90;;;;;;5078242;28;20063;-58
2022/09/28 10:29:25;;;;;;;4.70;1.15;;;12.70;99.90;;;;;;5077082;28;20044;-59
2022/09/28 10:31:52;;;;;;;2.97;1.00;;;12.90;99.90;;;;;;5078702;28;20463;-59
2022/09/28 10:34:25;;;;;;;2.53;0.80;;;13.10;99.90;;;;;;5077621;28;20090;-59
2022/09/28 10:36:57;;;;;;;4.70;1.15;;;13.30;99.90;;;;;;5078570;28;20052;-58
2022/09/28 10:39:31;;;;;;;3.03;0.80;;;13.30;99.90;;;;;;5058085;28;20041;-59
2022/09/28 10:42:02;;;;;;;3.60;0.90;;;13.30;99.90;;;;;;5056972;28;20069;-58
2022/09/28 10:44:31;;;;;;;3.20;0.98;;;13.20;99.90;;;;;;5058699;28;20053;-58
2022/09/28 10:47:02;;;;;;;2.63;0.90;;;13.10;99.90;;;;;;5057590;28;20045;-59
2022/09/28 10:49:41;;;;;;;4.68;1.00;;;12.90;99.90;;;;;;5056606;28;20048;-59
2022/09/28 10:52:33;;;;;;;1.90;0.85;;;12.70;99.90;;;;;;5065471;28;20074;-58
2022/09/28 10:54:59;;;;;;;3.58;0.80;;;12.60;99.90;;;;;;5077669;28;20094;-58
2022/09/28 10:57:33;;;;;;;3.15;1.00;;;12.70;99.90;;;;;;5078371;28;20041;-59
2022/09/28 11:00:00;;;;;;;4.65;0.95;;;12.30;99.90;;;;;;5079874;28;20059;-58
2022/09/28 11:02:33;;;;;;;2.65;0.93;;;12.30;99.90;;;;;;5081167;28;20459;-59
2022/09/28 11:05:01;;;;;;;4.28;1.30;;;12.30;99.90;;;;;;5080439;28;20048;-58
2022/09/28 11:07:29;;;;;;;3.05;0.80;;;12.30;99.90;;;;;;5078171;28;20041;-58
2022/09/28 11:09:57;;;;;;;3.40;0.90;;;12.30;99.90;;;;;;5081092;28;20045;-58
2022/09/28 11:12:44;;;;;;;3.15;1.00;;;12.30;99.90;;;;;;5080363;28;20042;-59
2022/09/28 11:15:18;;;;;;;2.88;0.98;;;12.30;99.90;;;;;;5078386;28;20068;-58
2022/09/28 11:17:43;;;;;;;3.85;1.10;;;12.30;99.90;;;;;;5072924;28;20040;-58
2022/09/28 11:20:29;;;;;;;3.83;1.10;;;12.30;99.90;;;;;;5080863;28;20048;-58
2022/09/28 11:23:00;;;;;;;2.13;0.80;;;12.40;99.90;;;;;;5080903;28;20083;-59
2022/09/28 11:25:27;;;;;;;3.55;0.90;;;12.50;99.90;;;;;;5080294;28;20041;-59
2022/09/28 11:27:53;;;;;;;2.38;0.70;;;12.30;99.90;;;;;;5079330;28;20060;-59
2022/09/28 11:30:31;;;;;;;3.28;0.90;;;12.50;99.90;;;;;;5080598;28;20036;-59
2022/09/28 11:33:03;;;;;;;2.75;0.90;;;12.40;99.90;;;;;;5081311;28;20059;-59
2022/09/28 11:35:44;;;;;;;;;;;12.30;99.90;;;;;;5081937;28;20079;-60
2022/09/28 11:38:38;;;;;;;2.45;0.85;;;12.30;99.90;;;;;;5071792;28;19921;-61
2022/09/28 11:41:25;;;;;;;5.70;0.82;;;12.20;99.90;;;;;;5073922;28;20083;-60
2022/09/28 11:44:16;;;;;;;4.00;0.90;;;12.20;99.90;;;;;;5080933;28;20119;-61
2022/09/28 11:47:12;;;;;;;3.05;0.90;;;12.10;99.90;;;;;;5080247;28;20072;-60
2022/09/28 11:49:44;;;;;;;2.45;1.00;;;12.10;99.90;;;;;;5081280;28;20048;-60
2022/09/28 11:52:20;;;;;;;3.53;1.10;;;12.00;99.90;;;;;;5080349;28;20044;-59
2022/09/28 11:55:03;;;;;;;3.70;1.02;;;11.90;99.90;;;;;;5078916;28;20045;-60
2022/09/28 11:57:37;;;;;;;4.72;1.00;;;11.90;99.90;;;;;;5080789;28;20052;-59
2022/09/28 12:00:14;;;;;;;4.90;1.10;;;11.80;99.90;;;;;;5080092;28;20060;-59
2022/09/28 12:02:49;;;;;;;2.45;1.20;;;11.80;99.90;;;;;;5079956;28;20052;-59
2022/09/28 12:05:23;;;;;;;3.47;1.30;;;11.60;99.90;;;;;;5079268;28;20066;-59
2022/09/28 12:08:08;;;;;;;5.40;1.20;;;11.70;99.90;;;;;;5079822;28;20040;-58
2022/09/28 12:10:42;;;;;;;3.50;1.25;;;11.60;99.90;;;;;;5077515;28;20063;-58
2022/09/28 12:13:21;;;;;;;5.15;2.40;;;11.50;99.90;;;;;;5079641;28;20540;-58
2022/09/28 12:16:00;;;;;;;5.20;2.55;;;11.60;99.90;;;;;;5080386;28;20082;-58
2022/09/28 12:18:28;;;;;;;4.10;1.40;;;11.80;99.90;;;;;;5079235;28;20098;-57
2022/09/28 12:21:20;;;;;;;3.00;0.90;;;11.90;99.90;;;;;;5078315;28;20365;-58
2022/09/28 12:23:48;;;;;;;3.38;0.82;;;11.90;99.90;;;;;;5079879;28;20067;-59
2022/09/28 12:26:25;;;;;;;3.97;1.00;;;12.00;99.90;;;;;;5079427;28;20043;-58
2022/09/28 12:28:56;;;;;;;3.75;0.90;;;12.00;99.90;;;;;;5079725;28;20048;-58
2022/09/28 12:31:34;;;;;;;4.32;1.13;;;11.90;99.90;;;;;;5080017;28;20076;-57
2022/09/28 12:34:00;;;;;;;3.42;0.90;;;12.00;99.90;;;;;;5079526;28;20634;-58
2022/09/28 12:36:52;;;;;;;2.42;0.90;;;12.20;99.90;;;;;;5080251;28;20032;-58
2022/09/28 12:39:36;;;;;;;3.50;0.90;;;12.30;99.90;;;;;;5062129;28;20049;-58
2022/09/28 12:42:30;;;;;;;3.05;0.90;;;12.30;99.90;;;;;;5059619;28;20086;-58
2022/09/28 12:44:58;;;;;;;0.77;0.63;;;12.50;99.90;;;;;;5060315;28;20048;-58
2022/09/28 12:47:52;;;;;;;2.03;0.60;;;12.70;99.90;;;;;;5059629;28;20036;-58
2022/09/28 12:50:25;;;;;;;3.85;1.00;;;12.90;99.90;;;;;;5059906;28;20045;-58
2022/09/28 12:53:28;;;;;;;2.88;0.55;;;13.20;99.90;;;;;;5060381;28;20053;-58
2022/09/28 12:56:13;;;;;;;;;;;13.30;99.90;;;;;;5059860;28;20107;-58
2022/09/28 12:59:12;;;;;;;1.10;0.55;;;13.30;99.90;;;;;;5059854;28;19931;-58
2022/09/28 13:02:19;;;;;;;1.52;0.60;;;13.40;99.90;;;;;;5059876;28;20127;-58
2022/09/28 13:05:21;;;;;;;2.00;0.68;;;13.40;99.90;;;;;;5059386;28;20510;-58
2022/09/28 13:08:04;;;;;;;1.83;0.75;;;13.50;99.90;;;;;;5058968;28;20055;-56
2022/09/28 13:10:39;;;;;;;2.30;0.60;;;13.40;99.90;;;;;;5059618;28;20071;-57
2022/09/28 13:13:33;;;;;;;1.63;0.70;;;13.40;99.90;;;;;;5059127;28;20041;-58
2022/09/28 13:16:08;;;;;;;2.78;0.75;;;13.20;99.90;;;;;;5059235;28;20127;-57
2022/09/28 13:19:06;;;;;;;1.67;0.60;;;13.10;99.90;;;;;;5059679;28;20047;-58
2022/09/28 13:21:56;;;;;;;3.25;0.63;;;13.00;99.90;;;;;;5058382;28;20112;-58